createdAt,value
2019-05-05T00:02:46.041Z,65.42
2019-05-05T00:05:30.432Z,65.69
2019-05-05T00:08:01.761Z,65.42
2019-05-05T00:10:46.041Z,65.75
2019-05-05T00:13:26.881Z,65.78
2019-05-05T00:16:17.080Z,65.32
2019-05-05T00:18:49.061Z,65.64
2019-05-05T00:21:20.091Z,66.34
2019-05-05T00:23:52.307Z,65.46
2019-05-05T00:26:24.368Z,65.15
2019-05-05T00:28:55.680Z,65.16
2019-05-05T00:31:27.122Z,65.77
2019-05-05T00:33:58.477Z,66.00
2019-05-05T00:36:29.737Z,66.59
2019-05-05T00:39:01.246Z,66.20
2019-05-05T00:41:34.606Z,66.14
2019-05-05T00:44:06.546Z,66.06
2019-05-05T00:46:56.715Z,66.00
2019-05-05T00:49:28.876Z,65.98
2019-05-05T00:52:00.260Z,65.97
2019-05-05T00:54:31.872Z,66.52
2019-05-05T00:57:04.434Z,67.08
2019-05-05T00:59:35.589Z,65.27
2019-05-05T01:02:28.299Z,65.81
2019-05-05T01:05:12.147Z,65.89
2019-05-05T01:07:44.381Z,66.47
2019-05-05T01:10:15.632Z,66.07
2019-05-05T01:12:47.023Z,66.22
2019-05-05T01:15:18.231Z,66.76
2019-05-05T01:17:49.520Z,67.23
2019-05-05T01:20:20.967Z,67.07
2019-05-05T01:22:52.229Z,68.11
2019-05-05T01:25:25.377Z,68.82
2019-05-05T01:27:56.844Z,68.85
2019-05-05T01:30:31.220Z,69.32
2019-05-05T01:33:09.514Z,69.23
2019-05-05T01:35:41.172Z,69.15
2019-05-05T01:38:18.636Z,69.75
2019-05-05T01:40:57.798Z,69.88
2019-05-05T01:43:29.355Z,70.00
2019-05-05T01:46:00.806Z,70.14
2019-05-05T01:48:32.317Z,70.64
2019-05-05T01:51:05.009Z,69.77
2019-05-05T01:53:37.686Z,69.37
2019-05-05T01:56:09.109Z,67.59
2019-05-05T01:58:40.637Z,68.75
2019-05-05T02:01:12.181Z,67.50
2019-05-05T02:03:44.306Z,66.74
2019-05-05T02:06:15.834Z,68.53
2019-05-05T02:08:47.202Z,69.53
2019-05-05T02:11:18.749Z,69.89
2019-05-05T02:13:50.095Z,70.39
2019-05-05T02:16:21.597Z,71.54
2019-05-05T02:18:54.438Z,73.23
2019-05-05T02:21:26.872Z,72.18
2019-05-05T02:23:58.801Z,72.80
2019-05-05T02:26:30.515Z,75.17
2019-05-05T02:29:19.682Z,74.60
2019-05-05T02:32:08.795Z,75.73
2019-05-05T02:34:46.132Z,76.32
2019-05-05T02:37:18.151Z,78.77
2019-05-05T02:39:58.923Z,78.77
2019-05-05T02:42:26.389Z,77.70
2019-05-05T02:45:05.077Z,78.19
2019-05-05T02:47:38.290Z,79.08
2019-05-05T02:50:09.906Z,79.08
2019-05-05T02:52:44.190Z,79.91
2019-05-05T02:55:16.163Z,79.57
2019-05-05T02:57:48.221Z,80.48
2019-05-05T03:00:38.895Z,80.93
2019-05-05T03:03:13.399Z,80.49
2019-05-05T03:05:44.874Z,80.21
2019-05-05T03:08:16.776Z,81.25
2019-05-05T03:10:48.930Z,83.67
2019-05-05T03:13:21.863Z,83.67
2019-05-05T03:15:58.301Z,79.44
2019-05-05T03:18:30.381Z,83.45
2019-05-05T03:21:07.147Z,80.35
2019-05-05T03:23:36.749Z,81.29
2019-05-05T03:26:08.550Z,81.63
2019-05-05T03:28:47.294Z,80.66
2019-05-05T03:31:19.348Z,79.94
2019-05-05T03:33:54.700Z,79.71
2019-05-05T03:36:25.889Z,80.76
2019-05-05T03:38:59.420Z,80.76
2019-05-05T03:41:43.858Z,78.72
2019-05-05T03:44:34.297Z,78.72
2019-05-05T03:47:06.323Z,77.87
2019-05-05T03:49:37.826Z,77.22
2019-05-05T03:52:09.590Z,76.60
2019-05-05T03:54:41.251Z,77.05
2019-05-05T03:57:14.107Z,78.93
2019-05-05T03:59:45.634Z,76.81
2019-05-05T04:02:25.994Z,77.89
2019-05-05T04:04:58.577Z,77.57
2019-05-05T04:07:30.291Z,76.26
2019-05-05T04:10:03.733Z,76.27
2019-05-05T04:12:35.639Z,76.98
2019-05-05T04:15:07.354Z,76.44
2019-05-05T04:17:56.302Z,76.96
2019-05-05T04:20:45.785Z,75.73
2019-05-05T04:23:17.205Z,76.40
2019-05-05T04:25:48.536Z,77.03
2019-05-05T04:28:19.940Z,77.86
2019-05-05T04:30:51.303Z,78.23
2019-05-05T04:33:23.660Z,76.30
2019-05-05T04:35:55.121Z,76.85
2019-05-05T04:38:26.395Z,78.92
2019-05-05T04:40:57.847Z,79.81
2019-05-05T04:43:29.173Z,79.77
2019-05-05T04:46:00.453Z,79.09
2019-05-05T04:48:43.912Z,79.30
2019-05-05T04:51:24.376Z,79.43
2019-05-05T04:54:15.869Z,79.57
2019-05-05T04:56:47.234Z,79.49
2019-05-05T04:59:18.345Z,80.98
2019-05-05T05:01:51.566Z,81.20
2019-05-05T05:04:30.830Z,80.51
2019-05-05T05:07:04.471Z,80.20
2019-05-05T05:09:35.369Z,79.54
2019-05-05T05:12:06.721Z,79.04
2019-05-05T05:14:37.930Z,79.69
2019-05-05T05:17:14.165Z,79.64
2019-05-05T05:19:45.626Z,80.20
2019-05-05T05:22:16.652Z,79.93
2019-05-05T05:24:47.936Z,80.08
2019-05-05T05:27:19.385Z,80.08
2019-05-05T05:29:50.783Z,78.86
2019-05-05T05:32:24.533Z,78.23
2019-05-05T05:34:56.364Z,78.86
2019-05-05T05:37:27.639Z,78.95
2019-05-05T05:40:08.510Z,79.11
2019-05-05T05:42:39.939Z,77.73
2019-05-05T05:45:48.623Z,77.95
2019-05-05T05:48:38.924Z,77.99
2019-05-05T05:51:14.500Z,77.19
2019-05-05T05:53:46.818Z,75.28
2019-05-05T05:56:17.904Z,74.92
2019-05-05T05:58:49.000Z,75.36
2019-05-05T06:01:20.754Z,76.48
2019-05-05T06:03:53.635Z,76.61
2019-05-05T06:06:25.411Z,74.91
2019-05-05T06:08:58.525Z,74.78
2019-05-05T06:11:30.397Z,74.30
2019-05-05T06:14:03.979Z,74.70
2019-05-05T06:16:37.258Z,75.89
2019-05-05T06:19:10.296Z,73.10
2019-05-05T06:21:43.852Z,73.86
2019-05-05T06:24:14.361Z,72.34
2019-05-05T06:26:45.558Z,70.42
2019-05-05T06:29:16.787Z,68.61
2019-05-05T06:31:47.884Z,66.20
2019-05-05T06:34:18.916Z,67.34
2019-05-05T06:36:50.019Z,65.47
2019-05-05T06:39:21.194Z,67.10
2019-05-05T06:42:01.310Z,66.28
2019-05-05T06:44:55.460Z,65.77
2019-05-05T06:47:29.533Z,66.71
2019-05-05T06:50:00.998Z,68.23
2019-05-05T06:52:43.700Z,69.54
2019-05-05T06:55:06.169Z,67.78
2019-05-05T06:57:37.694Z,69.21
2019-05-05T07:00:09.466Z,69.59
2019-05-05T07:02:41.087Z,69.10
2019-05-05T07:05:14.282Z,69.70
2019-05-05T07:07:45.297Z,70.01
2019-05-05T07:10:16.885Z,71.77
2019-05-05T07:12:48.118Z,69.99
2019-05-05T07:15:19.619Z,69.07
2019-05-05T07:17:50.827Z,67.83
2019-05-05T07:20:24.027Z,67.88
2019-05-05T07:23:01.418Z,69.64
2019-05-05T07:25:39.884Z,68.48
2019-05-05T07:28:00.817Z,65.58
2019-05-05T07:30:33.572Z,65.09
2019-05-05T07:33:05.126Z,65.09
2019-05-05T07:35:55.368Z,64.47
2019-05-05T07:38:17.855Z,63.78
2019-05-05T07:40:48.909Z,63.78
2019-05-05T07:43:20.333Z,62.52
2019-05-05T07:45:53.885Z,60.03
2019-05-05T07:48:24.618Z,60.24
2019-05-05T07:51:01.936Z,61.13
2019-05-05T07:53:28.324Z,61.94
2019-05-05T07:55:59.633Z,61.28
2019-05-05T07:58:30.901Z,60.62
2019-05-05T08:01:02.056Z,61.41
2019-05-05T08:03:33.856Z,63.13
2019-05-05T08:06:05.427Z,62.78
2019-05-05T08:08:37.356Z,62.87
2019-05-05T08:11:08.523Z,62.87
2019-05-05T08:13:39.718Z,61.71
2019-05-05T08:16:29.899Z,61.90
2019-05-05T08:19:13.762Z,61.53
2019-05-05T08:21:45.157Z,59.80
2019-05-05T08:24:33.735Z,59.29
2019-05-05T08:27:34.000Z,60.35
2019-05-05T08:30:15.314Z,60.17
2019-05-05T08:32:46.949Z,59.58
2019-05-05T08:35:18.394Z,58.90
2019-05-05T08:37:50.848Z,58.13
2019-05-05T08:40:24.014Z,57.98
2019-05-05T08:42:55.192Z,60.39
2019-05-05T08:45:26.825Z,60.88
2019-05-05T08:47:58.448Z,61.60
2019-05-05T08:50:29.903Z,62.06
2019-05-05T08:53:01.222Z,61.57
2019-05-05T08:55:34.590Z,60.71
2019-05-05T08:58:06.203Z,60.71
2019-05-05T09:00:37.573Z,58.80
2019-05-05T09:03:09.142Z,56.50
2019-05-05T09:05:40.277Z,57.40
2019-05-05T09:08:13.783Z,56.25
2019-05-05T09:10:44.893Z,57.36
2019-05-05T09:13:16.276Z,56.16
2019-05-05T09:15:47.572Z,51.54
2019-05-05T09:18:18.593Z,52.15
2019-05-05T09:20:49.684Z,53.07
2019-05-05T09:23:20.662Z,51.13
2019-05-05T09:26:04.437Z,49.02
2019-05-05T09:28:40.083Z,47.92
2019-05-05T09:31:10.996Z,48.77
2019-05-05T09:33:44.188Z,48.56
2019-05-05T09:36:15.149Z,48.65
2019-05-05T09:38:46.326Z,47.89
2019-05-05T09:41:17.538Z,48.11
2019-05-05T09:43:48.653Z,48.94
2019-05-05T09:46:19.718Z,47.13
2019-05-05T09:48:51.272Z,49.27
2019-05-05T09:51:24.152Z,48.87
2019-05-05T09:53:55.655Z,49.76
2019-05-05T09:56:26.995Z,50.89
2019-05-05T09:58:58.206Z,52.48
2019-05-05T10:01:29.390Z,52.92
2019-05-05T10:04:10.602Z,52.21
2019-05-05T10:06:45.514Z,52.01
2019-05-05T10:09:15.178Z,52.15
2019-05-05T10:11:46.430Z,53.89
2019-05-05T10:14:17.724Z,52.70
2019-05-05T10:16:49.324Z,54.50
2019-05-05T10:19:20.644Z,54.97
2019-05-05T10:21:51.963Z,55.95
2019-05-05T10:24:31.031Z,54.91
2019-05-05T10:27:00.386Z,56.07
2019-05-05T10:29:31.776Z,55.98
2019-05-05T10:32:04.554Z,55.00
2019-05-05T10:34:35.895Z,55.57
2019-05-05T10:37:07.223Z,56.22
2019-05-05T10:39:44.017Z,57.10
2019-05-05T10:42:15.357Z,57.66
2019-05-05T10:44:47.611Z,56.60
2019-05-05T10:47:18.829Z,54.96
2019-05-05T10:49:50.059Z,54.23
2019-05-05T10:52:21.166Z,55.32
2019-05-05T10:54:54.695Z,57.16
2019-05-05T10:57:25.132Z,56.75
2019-05-05T11:00:09.371Z,56.41
2019-05-05T11:02:29.617Z,56.58
2019-05-05T11:05:00.842Z,57.68
2019-05-05T11:07:34.096Z,58.24
2019-05-05T11:10:05.982Z,57.42
2019-05-05T11:12:37.121Z,56.16
2019-05-05T11:15:10.136Z,56.34
2019-05-05T11:17:41.355Z,56.82
2019-05-05T11:20:14.425Z,56.70
2019-05-05T11:22:45.609Z,57.55
2019-05-05T11:25:17.050Z,56.55
2019-05-05T11:27:48.222Z,55.44
2019-05-05T11:30:26.916Z,54.39
2019-05-05T11:33:34.279Z,54.10
2019-05-05T11:36:16.466Z,53.65
2019-05-05T11:38:47.721Z,52.20
2019-05-05T11:41:19.073Z,50.77
2019-05-05T11:43:50.153Z,51.57
2019-05-05T11:46:21.387Z,53.14
2019-05-05T11:48:54.421Z,51.99
2019-05-05T11:51:26.134Z,51.84
2019-05-05T11:53:57.414Z,51.54
2019-05-05T11:56:28.900Z,50.45
2019-05-05T11:59:00.112Z,53.11
2019-05-05T12:01:31.322Z,52.79
2019-05-05T12:04:04.373Z,51.05
2019-05-05T12:06:36.017Z,51.84
2019-05-05T12:09:13.954Z,50.41
2019-05-05T12:11:45.186Z,50.95
2019-05-05T12:14:18.945Z,51.49
2019-05-05T12:16:49.958Z,51.25
2019-05-05T12:19:21.346Z,52.15
2019-05-05T12:21:54.574Z,50.93
2019-05-05T12:24:29.713Z,50.65
2019-05-05T12:27:24.615Z,51.08
2019-05-05T12:29:59.994Z,51.24
2019-05-05T12:32:31.432Z,51.34
2019-05-05T12:35:04.233Z,51.89
2019-05-05T12:37:35.480Z,52.23
2019-05-05T12:40:08.176Z,52.14
2019-05-05T12:42:39.527Z,52.59
2019-05-05T12:45:14.086Z,51.78
2019-05-05T12:48:10.068Z,51.69
2019-05-05T12:50:41.182Z,51.96
2019-05-05T12:53:14.406Z,52.10
2019-05-05T12:55:45.407Z,51.35
2019-05-05T12:58:16.930Z,51.42
2019-05-05T13:00:57.392Z,51.31
2019-05-05T13:03:28.472Z,51.40
2019-05-05T13:05:59.969Z,50.45
2019-05-05T13:08:33.891Z,50.82
2019-05-05T13:11:04.883Z,51.86
2019-05-05T13:13:36.359Z,52.49
2019-05-05T13:16:07.477Z,51.84
2019-05-05T13:18:38.921Z,50.32
2019-05-05T13:21:41.179Z,51.37
2019-05-05T13:24:40.461Z,51.06
2019-05-05T13:27:11.525Z,50.47
2019-05-05T13:29:44.278Z,49.42
2019-05-05T13:32:15.597Z,49.49
2019-05-05T13:34:46.570Z,49.55
2019-05-05T13:37:18.013Z,50.38
2019-05-05T13:39:49.237Z,48.81
2019-05-05T13:42:20.405Z,48.96
2019-05-05T13:45:03.975Z,48.96
2019-05-05T13:47:35.326Z,49.70
2019-05-05T13:50:14.188Z,50.35
2019-05-05T13:52:45.776Z,49.62
2019-05-05T13:55:17.270Z,49.88
2019-05-05T13:57:48.885Z,49.96
2019-05-05T14:00:20.681Z,49.77
2019-05-05T14:02:51.841Z,50.41
2019-05-05T14:05:24.036Z,51.56
2019-05-05T14:07:55.523Z,52.32
2019-05-05T14:10:26.904Z,53.41
2019-05-05T14:12:58.983Z,54.38
2019-05-05T14:15:30.256Z,55.28
2019-05-05T14:18:03.674Z,55.98
2019-05-05T14:20:34.795Z,55.85
2019-05-05T14:23:05.916Z,56.14
2019-05-05T14:25:37.453Z,56.09
2019-05-05T14:28:08.748Z,56.00
2019-05-05T14:30:54.562Z,56.02
2019-05-05T14:33:28.550Z,56.43
2019-05-05T14:36:25.863Z,56.78
2019-05-05T14:38:58.288Z,55.53
2019-05-05T14:41:29.604Z,54.99
2019-05-05T14:44:00.736Z,54.95
2019-05-05T14:46:33.923Z,54.46
2019-05-05T14:49:05.816Z,54.82
2019-05-05T14:51:37.283Z,55.64
2019-05-05T14:54:10.804Z,55.82
2019-05-05T14:56:43.891Z,55.91
2019-05-05T14:59:14.583Z,57.47
2019-05-05T15:01:46.074Z,56.56
2019-05-05T15:04:19.045Z,57.27
2019-05-05T15:07:00.352Z,58.35
2019-05-05T15:09:54.655Z,58.88
2019-05-05T15:12:38.859Z,60.23
2019-05-05T15:15:10.191Z,61.56
2019-05-05T15:17:41.217Z,62.32
2019-05-05T15:20:13.985Z,62.68
2019-05-05T15:22:45.196Z,63.29
2019-05-05T15:25:16.558Z,63.82
2019-05-05T15:27:48.143Z,64.54
2019-05-05T15:30:19.375Z,64.88
2019-05-05T15:32:50.561Z,65.11
2019-05-05T15:35:21.936Z,65.30
2019-05-05T15:37:54.155Z,64.94
2019-05-05T15:40:25.533Z,65.72
2019-05-05T15:42:56.663Z,66.61
2019-05-05T15:45:28.052Z,66.98
2019-05-05T15:47:59.478Z,67.08
2019-05-05T15:50:30.798Z,67.53
2019-05-05T15:53:03.805Z,67.53
2019-05-05T15:55:35.259Z,67.37
2019-05-05T15:58:06.604Z,67.34
2019-05-05T16:00:37.769Z,67.31
2019-05-05T16:03:09.286Z,67.31
2019-05-05T16:05:40.540Z,67.28
2019-05-05T16:08:11.629Z,67.22
2019-05-05T16:10:44.020Z,68.24
2019-05-05T16:13:15.645Z,67.69
2019-05-05T16:16:05.779Z,67.66
2019-05-05T16:19:05.250Z,67.31
2019-05-05T16:21:40.693Z,67.35
2019-05-05T16:24:20.602Z,66.86
2019-05-05T16:26:55.231Z,67.07
2019-05-05T16:29:24.408Z,67.50
2019-05-05T16:31:55.791Z,67.80
2019-05-05T16:34:26.952Z,67.56
2019-05-05T16:36:58.023Z,64.79
2019-05-05T16:39:29.190Z,64.32
2019-05-05T16:42:00.445Z,62.99
2019-05-05T16:44:33.992Z,63.31
2019-05-05T16:47:04.871Z,63.51
2019-05-05T16:49:36.157Z,64.31
2019-05-05T16:52:14.584Z,64.62
2019-05-05T16:55:05.630Z,67.38
2019-05-05T16:57:37.125Z,70.54
2019-05-05T17:00:08.750Z,74.50
2019-05-05T17:02:39.893Z,77.15
2019-05-05T17:05:13.629Z,79.60
2019-05-05T17:07:44.564Z,79.60
2019-05-05T17:10:15.950Z,81.85
2019-05-05T17:12:47.536Z,81.85
2019-05-05T17:15:46.685Z,83.19
2019-05-05T17:18:41.876Z,83.19
2019-05-05T17:21:21.873Z,84.70
2019-05-05T17:23:53.954Z,85.91
2019-05-05T17:26:25.308Z,85.95
2019-05-05T17:28:56.647Z,86.57
2019-05-05T17:31:27.804Z,86.53
2019-05-05T17:33:59.244Z,86.91
2019-05-05T17:36:30.531Z,86.63
2019-05-05T17:39:01.666Z,86.59
2019-05-05T17:41:53.876Z,86.48
2019-05-05T17:44:44.281Z,85.59
2019-05-05T17:47:25.250Z,85.45
2019-05-05T17:50:08.783Z,85.58
2019-05-05T17:52:47.085Z,85.81
2019-05-05T17:55:29.087Z,86.15
2019-05-05T17:58:02.666Z,85.93
2019-05-05T18:00:36.611Z,85.62
2019-05-05T18:03:08.128Z,85.93
2019-05-05T18:05:56.957Z,86.02
2019-05-05T18:08:53.775Z,84.51
2019-05-05T18:11:30.255Z,81.88
2019-05-05T18:14:05.529Z,81.62
2019-05-05T18:16:36.552Z,81.27
2019-05-05T18:19:07.798Z,80.07
2019-05-05T18:21:39.170Z,79.92
2019-05-05T18:24:10.131Z,79.66
2019-05-05T18:26:43.435Z,79.85
2019-05-05T18:29:14.560Z,79.72
2019-05-05T18:31:45.936Z,76.66
2019-05-05T18:34:17.099Z,76.66
2019-05-05T18:36:48.206Z,74.86
2019-05-05T18:39:19.620Z,73.49
2019-05-05T18:42:09.734Z,73.49
2019-05-05T18:44:44.481Z,75.57
2019-05-05T18:47:19.403Z,75.57
2019-05-05T18:49:53.962Z,75.79
2019-05-05T18:52:25.319Z,75.64
2019-05-05T18:54:56.307Z,75.54
2019-05-05T18:57:27.354Z,76.21
2019-05-05T18:59:58.476Z,76.65
2019-05-05T19:02:44.270Z,75.50
2019-05-05T19:05:23.714Z,75.40
2019-05-05T19:08:01.454Z,73.07
2019-05-05T19:10:33.719Z,73.60
2019-05-05T19:13:05.194Z,73.06
2019-05-05T19:15:36.744Z,75.71
2019-05-05T19:18:08.147Z,75.71
2019-05-05T19:20:54.240Z,75.04
2019-05-05T19:23:25.345Z,76.72
2019-05-05T19:25:56.480Z,73.54
2019-05-05T19:28:40.974Z,73.54
2019-05-05T19:31:00.430Z,74.26
2019-05-05T19:33:33.922Z,73.97
2019-05-05T19:36:05.030Z,73.30
2019-05-05T19:38:36.131Z,74.37
2019-05-05T19:41:07.079Z,74.37
2019-05-05T19:43:54.858Z,74.72
2019-05-05T19:46:37.845Z,75.00
2019-05-05T19:49:18.417Z,73.45
2019-05-05T19:51:50.135Z,74.68
2019-05-05T19:54:21.951Z,74.68
2019-05-05T19:56:54.246Z,75.52
2019-05-05T19:59:25.391Z,77.32
2019-05-05T20:01:56.542Z,77.66
2019-05-05T20:04:27.864Z,77.08
2019-05-05T20:06:59.237Z,77.08
2019-05-05T20:09:30.653Z,76.96
2019-05-05T20:12:03.870Z,77.16
2019-05-05T20:14:36.324Z,77.90
2019-05-05T20:17:16.570Z,78.06
2019-05-05T20:19:47.673Z,77.74
2019-05-05T20:22:18.823Z,77.74
2019-05-05T20:24:49.758Z,78.48
2019-05-05T20:27:21.141Z,76.93
2019-05-05T20:29:52.321Z,73.11
2019-05-05T20:32:34.141Z,68.49
2019-05-05T20:35:17.942Z,67.19
2019-05-05T20:38:14.352Z,68.36
2019-05-05T20:40:47.120Z,70.34
2019-05-05T20:43:18.327Z,71.84
2019-05-05T20:45:49.376Z,71.84
2019-05-05T20:48:20.314Z,74.95
2019-05-05T20:50:51.331Z,76.92
2019-05-05T20:53:24.547Z,77.59
2019-05-05T20:55:55.016Z,77.59
2019-05-05T20:58:26.251Z,78.24
2019-05-05T21:00:57.480Z,78.30
2019-05-05T21:03:28.764Z,77.98
2019-05-05T21:05:59.825Z,78.40
2019-05-05T21:08:30.893Z,78.40
2019-05-05T21:11:04.176Z,77.40
2019-05-05T21:13:35.214Z,75.25
2019-05-05T21:16:06.227Z,75.25
2019-05-05T21:18:37.197Z,70.30
2019-05-05T21:21:13.740Z,70.24
2019-05-05T21:23:49.628Z,67.93
2019-05-05T21:26:25.031Z,66.07
2019-05-05T21:28:56.088Z,66.07
2019-05-05T21:31:27.324Z,69.01
2019-05-05T21:33:58.377Z,72.24
2019-05-05T21:36:29.757Z,72.24
2019-05-05T21:39:01.215Z,74.29
2019-05-05T21:41:34.054Z,75.54
2019-05-05T21:44:05.623Z,75.54
2019-05-05T21:46:36.910Z,75.81
2019-05-05T21:49:08.160Z,75.81
2019-05-05T21:52:07.359Z,76.21
2019-05-05T21:55:04.709Z,78.78
2019-05-05T21:58:01.034Z,79.07
2019-05-05T22:00:49.630Z,79.07
2019-05-05T22:03:27.772Z,79.74
2019-05-05T22:05:58.930Z,80.52
2019-05-05T22:08:29.986Z,80.57
2019-05-05T22:11:03.770Z,80.62
2019-05-05T22:13:36.603Z,80.42
2019-05-05T22:16:08.380Z,80.61
2019-05-05T22:18:40.110Z,80.17
2019-05-05T22:21:45.173Z,79.23
2019-05-05T22:24:17.444Z,79.23
2019-05-05T22:26:48.830Z,78.05
2019-05-05T22:29:20.343Z,76.83
2019-05-05T22:31:51.709Z,76.83
2019-05-05T22:34:24.118Z,77.77
2019-05-05T22:36:55.602Z,77.77
2019-05-05T22:39:27.034Z,77.74
2019-05-05T22:41:58.405Z,77.60
2019-05-05T22:44:29.519Z,77.60
2019-05-05T22:47:00.764Z,78.36
2019-05-05T22:49:31.888Z,77.38
2019-05-05T22:52:03.845Z,77.38
2019-05-05T22:54:35.088Z,77.67
2019-05-05T22:57:06.331Z,75.61
2019-05-05T22:59:37.391Z,75.61
2019-05-05T23:02:08.919Z,75.30
2019-05-05T23:04:57.891Z,74.91
2019-05-05T23:07:31.103Z,71.75
2019-05-05T23:10:04.462Z,71.75
2019-05-05T23:12:35.210Z,70.96
2019-05-05T23:15:09.447Z,71.39
2019-05-05T23:17:56.384Z,70.41
2019-05-05T23:21:02.521Z,70.22
2019-05-05T23:23:50.366Z,68.73
2019-05-05T23:26:22.306Z,71.14
2019-05-05T23:28:53.820Z,71.14
2019-05-05T23:31:24.938Z,73.04
2019-05-05T23:33:56.093Z,73.54
2019-05-05T23:36:27.537Z,73.92
2019-05-05T23:38:58.902Z,74.83
2019-05-05T23:41:31.205Z,74.83
2019-05-05T23:44:03.664Z,74.75
2019-05-05T23:46:34.999Z,74.55
2019-05-05T23:49:06.469Z,74.55
2019-05-05T23:51:38.858Z,75.03
2019-05-05T23:54:10.362Z,73.23
2019-05-05T23:56:41.619Z,72.79
2019-05-05T23:59:13.705Z,72.79
